Time;durP1;ratioP1;P1;durP2;ratioP2;P2;SDS_P1;SDS_P2;PMS_P1;PMS_P2;Temp;Humidity;BMP_temperature;BMP_pressure;BME280_temperature;BME280_humidity;BME280_pressure;Samples;Min_cycle;Max_cycle;Signal;HPM_P1;HPM_P2
2022/07/12 00:01:05;;;;;;;2.50;2.30;;;22.50;58.40;;;-142.21;79.50;112049.66;5115144;28;20200;-73
2022/07/12 00:03:33;;;;;;;2.63;2.43;;;22.50;58.30;;;-142.21;80.22;112049.66;5114008;28;20199;-72
2022/07/12 00:06:01;;;;;;;2.70;2.30;;;22.50;58.50;;;-142.21;80.02;112049.66;5114287;28;20257;-73
2022/07/12 00:08:28;;;;;;;2.40;2.20;;;22.50;58.70;;;-142.21;80.45;112049.66;5114056;28;20199;-72
2022/07/12 00:10:58;;;;;;;2.70;2.20;;;22.40;58.80;;;-142.21;80.75;112049.66;5114091;28;20259;-72
2022/07/12 00:13:25;;;;;;;2.37;2.17;;;22.30;58.80;;;-142.21;80.74;112049.66;5110746;28;20664;-72
2022/07/12 00:15:52;;;;;;;3.23;2.10;;;22.30;58.80;;;-142.21;81.25;112049.66;5108737;28;20209;-73
2022/07/12 00:18:19;;;;;;;2.70;2.50;;;22.30;59.10;;;-142.21;82.09;112049.66;5108295;28;20220;-74
2022/07/12 00:20:46;;;;;;;2.63;2.00;;;22.30;59.20;;;-142.21;82.83;112049.66;5111213;28;20223;-74
2022/07/12 00:23:14;;;;;;;2.00;1.90;;;22.30;59.40;;;-142.21;82.65;112049.66;5114515;28;20214;-75
2022/07/12 00:25:42;;;;;;;2.50;2.13;;;22.20;59.40;;;-142.21;83.33;112049.66;5113947;28;20318;-75
2022/07/12 00:28:10;;;;;;;2.17;2.00;;;22.20;59.70;;;-142.21;83.67;112049.66;5114617;28;20299;-74
2022/07/12 00:30:38;;;;;;;2.43;2.23;;;22.20;59.90;;;-142.21;83.38;112049.66;5112972;28;20210;-76
2022/07/12 00:33:05;;;;;;;3.00;2.40;;;22.10;59.80;;;-142.21;83.21;112049.66;5114256;28;20245;-74
2022/07/12 00:35:32;;;;;;;4.70;2.47;;;22.10;60.40;;;-142.21;83.72;112049.66;5109064;28;20230;-74
2022/07/12 00:37:59;;;;;;;3.60;2.30;;;22.00;59.90;;;-142.21;83.99;112049.66;5113914;28;20215;-75
2022/07/12 00:40:26;;;;;;;2.00;1.90;;;22.00;60.00;;;-142.21;83.49;112049.66;5100582;28;20200;-75
2022/07/12 00:42:53;;;;;;;2.20;2.00;;;22.00;59.90;;;-142.21;83.66;112049.66;5091989;28;20560;-77
2022/07/12 00:45:22;;;;;;;2.00;1.80;;;22.00;60.00;;;-142.21;83.92;112049.66;5113002;28;20208;-78
2022/07/12 00:47:53;;;;;;;2.30;2.10;;;22.00;60.10;;;-142.21;84.63;112049.66;5113607;28;20250;-76
2022/07/12 00:50:23;;;;;;;2.20;2.00;;;21.90;60.50;;;-142.21;84.26;112049.66;5114063;28;20565;-75
2022/07/12 00:52:53;;;;;;;2.40;2.00;;;21.90;61.30;;;-142.21;84.82;112049.66;5114713;28;20290;-75
2022/07/12 00:55:22;;;;;;;2.30;2.10;;;21.90;60.60;;;-142.21;84.80;112049.66;5095851;28;20200;-75
2022/07/12 00:57:50;;;;;;;2.47;2.27;;;21.90;60.70;;;-142.21;84.76;112049.66;5106236;28;20234;-78
2022/07/12 01:00:22;;;;;;;2.23;2.03;;;21.90;60.60;;;-142.21;85.24;112049.66;5112250;28;20224;-78
2022/07/12 01:02:51;;;;;;;2.63;2.10;;;21.90;60.80;;;-142.21;85.30;112049.66;5109507;28;20223;-78
2022/07/12 01:05:18;;;;;;;2.20;2.00;;;21.80;60.90;;;-142.21;85.38;112049.66;5110677;28;20680;-78
2022/07/12 01:07:46;;;;;;;3.03;2.03;;;21.80;60.90;;;-142.21;86.38;112049.66;5094706;28;20204;-77
2022/07/12 01:10:13;;;;;;;2.20;2.10;;;21.80;61.30;;;-142.21;86.32;112049.66;5111993;28;20602;-77
2022/07/12 01:12:41;;;;;;;3.07;2.30;;;21.70;61.30;;;-142.21;86.33;112049.66;5114216;28;20206;-77
2022/07/12 01:15:10;;;;;;;2.63;2.07;;;21.70;61.30;;;-142.21;86.69;112049.66;5114263;28;20204;-76
2022/07/12 01:17:37;;;;;;;2.30;2.10;;;21.70;61.50;;;-142.21;86.37;112049.66;5113742;28;20566;-77
2022/07/12 01:20:07;;;;;;;2.57;2.23;;;21.60;62.20;;;-142.21;86.91;112049.66;5113774;28;20200;-77
2022/07/12 01:22:41;;;;;;;2.47;2.27;;;21.60;61.90;;;-142.21;86.64;112049.66;5095376;28;20717;-77
2022/07/12 01:25:11;;;;;;;3.37;2.20;;;21.60;61.90;;;-142.21;86.91;112049.66;5096356;28;20203;-77
2022/07/12 01:27:39;;;;;;;2.70;1.93;;;21.50;61.90;;;-142.21;87.23;112049.66;5113645;28;20199;-76
2022/07/12 01:30:08;;;;;;;2.47;2.20;;;21.50;62.20;;;-142.21;87.02;112049.66;5114363;28;20544;-76
2022/07/12 01:32:35;;;;;;;2.00;1.90;;;21.50;62.30;;;-142.21;87.54;112049.66;5061111;28;20234;-76
2022/07/12 01:35:05;;;;;;;1.87;1.63;;;21.50;62.30;;;-142.21;87.48;112049.66;5114150;28;20549;-76
2022/07/12 01:37:36;;;;;;;2.20;2.00;;;21.40;62.30;;;-142.21;87.53;112049.66;5112352;28;20664;-76
2022/07/12 01:40:06;;;;;;;2.10;1.90;;;21.40;62.30;;;-142.21;87.16;112049.66;5112007;28;20351;-77
2022/07/12 01:42:36;;;;;;;1.97;1.87;;;21.40;62.10;;;-142.21;86.90;112049.66;5113493;28;20298;-76
2022/07/12 01:45:06;;;;;;;3.20;2.00;;;21.40;61.80;;;-142.21;87.27;112049.66;5112091;28;20224;-76
2022/07/12 01:47:34;;;;;;;2.23;1.90;;;21.40;61.80;;;-142.21;87.19;112049.66;5089842;28;20223;-76
2022/07/12 01:50:02;;;;;;;1.87;1.63;;;21.30;62.00;;;-142.21;87.43;112049.66;5112291;28;20195;-76
2022/07/12 01:52:29;;;;;;;2.87;2.00;;;21.30;62.10;;;-142.21;87.17;112049.66;5110555;28;20296;-76
2022/07/12 01:54:58;;;;;;;1.77;1.67;;;21.30;62.20;;;-142.21;87.08;112049.66;5114180;28;20204;-77
2022/07/12 01:57:27;;;;;;;2.10;1.90;;;21.30;62.20;;;-142.21;87.16;112049.66;5113395;28;20204;-77
2022/07/12 01:59:57;;;;;;;1.70;1.60;;;21.30;62.30;;;-142.21;86.90;112049.66;5113757;28;20238;-77
2022/07/12 02:02:27;;;;;;;2.23;1.93;;;21.20;62.40;;;-142.21;86.99;112049.66;5102761;28;20230;-76
2022/07/12 02:04:55;;;;;;;3.40;1.70;;;21.20;62.40;;;-142.21;88.12;112049.66;5109339;28;20223;-77
2022/07/12 02:07:24;;;;;;;1.50;1.40;;;21.20;62.60;;;-142.21;88.36;112049.66;5083456;28;20203;-76
2022/07/12 02:09:52;;;;;;;2.03;1.90;;;21.30;62.80;;;-142.21;88.71;112049.66;5094338;28;20250;-77
2022/07/12 02:12:19;;;;;;;1.73;1.57;;;21.20;63.00;;;-142.21;88.86;112049.66;5109410;28;20230;-77
2022/07/12 02:14:46;;;;;;;1.70;1.60;;;21.20;63.00;;;-142.21;89.35;112049.66;5111367;28;20213;-76
2022/07/12 02:17:15;;;;;;;2.10;1.90;;;21.20;63.20;;;-142.21;89.77;112049.66;5111267;28;20204;-77
2022/07/12 02:19:42;;;;;;;2.20;2.00;;;21.20;63.40;;;-142.21;90.20;112049.66;5109641;28;21684;-78
2022/07/12 02:22:09;;;;;;;2.20;2.00;;;21.10;63.40;;;-142.21;90.30;112049.66;5109773;28;20551;-78
2022/07/12 02:24:36;;;;;;;2.13;1.73;;;21.10;63.80;;;-142.21;90.28;112049.66;5090295;28;20211;-77
2022/07/12 02:27:04;;;;;;;3.80;2.00;;;21.10;63.60;;;-142.21;90.58;112049.66;5110661;28;20227;-77
2022/07/12 02:29:32;;;;;;;2.20;2.00;;;21.00;63.80;;;-142.21;90.83;112049.66;5111180;28;20213;-77
2022/07/12 02:31:59;;;;;;;2.87;2.60;;;21.00;63.90;;;-142.21;90.93;112049.66;5094108;28;20345;-78
2022/07/12 02:34:27;;;;;;;3.77;2.77;;;20.90;63.80;;;-142.21;91.40;112049.66;5090247;28;20344;-78
2022/07/12 02:36:55;;;;;;;3.03;2.73;;;20.90;64.10;;;-142.21;91.29;112049.66;5110033;28;20556;-78
2022/07/12 02:39:22;;;;;;;2.40;2.20;;;20.80;64.10;;;-142.21;91.77;112049.66;5111514;28;20314;-78
2022/07/12 02:41:49;;;;;;;3.10;2.80;;;20.80;64.40;;;-142.21;91.96;112049.66;5109046;28;20360;-78
2022/07/12 02:44:17;;;;;;;2.63;2.43;;;20.70;64.60;;;-142.21;92.03;112049.66;5109030;28;20618;-77
2022/07/12 02:46:44;;;;;;;2.90;2.50;;;20.70;64.70;;;-142.21;92.42;112049.66;5106673;28;20223;-77
2022/07/12 02:49:11;;;;;;;2.30;2.10;;;20.70;65.00;;;-142.21;93.07;112049.66;5092258;28;20215;-78
2022/07/12 02:51:40;;;;;;;2.33;2.13;;;20.70;65.10;;;-142.21;93.11;112049.66;5109868;28;20678;-76
2022/07/12 02:54:07;;;;;;;2.70;2.50;;;20.60;65.30;;;-142.21;93.64;112049.66;5094014;28;20208;-77
2022/07/12 02:56:34;;;;;;;2.57;2.30;;;20.60;65.30;;;-142.21;93.67;112049.66;5113904;28;20203;-77
2022/07/12 02:59:01;;;;;;;2.90;2.60;;;20.60;65.50;;;-142.21;93.91;112049.66;5114376;28;20548;-76
2022/07/12 03:01:28;;;;;;;2.43;2.23;;;20.60;65.90;;;-142.21;94.24;112049.66;5113948;28;20306;-77
2022/07/12 03:03:56;;;;;;;3.10;2.10;;;20.50;65.90;;;-142.21;94.36;112049.66;5112116;28;20239;-78
2022/07/12 03:06:23;;;;;;;2.43;2.17;;;20.50;66.70;;;-142.21;94.82;112049.66;5114738;28;20203;-76
2022/07/12 03:08:52;;;;;;;3.27;2.27;;;20.40;66.00;;;-142.21;94.08;112049.66;5114822;28;20200;-76
2022/07/12 03:11:19;;;;;;;2.50;2.30;;;20.40;66.00;;;-142.21;93.91;112049.66;5113825;28;20291;-76
2022/07/12 03:13:46;;;;;;;2.20;2.00;;;20.40;65.90;;;-142.21;94.07;112049.66;5113648;28;20290;-77
2022/07/12 03:16:13;;;;;;;2.63;2.43;;;20.40;66.00;;;-142.21;94.46;112049.66;5115519;28;20537;-78
2022/07/12 03:18:41;;;;;;;2.37;2.10;;;20.40;65.90;;;-142.21;94.64;112049.66;5093169;28;20231;-77
2022/07/12 03:21:08;;;;;;;2.40;2.20;;;20.40;66.00;;;-142.21;94.71;112049.66;5114382;28;20563;-77
2022/07/12 03:23:36;;;;;;;2.70;2.20;;;20.30;66.00;;;-142.21;94.71;112049.66;5095198;28;20208;-77
2022/07/12 03:26:07;;;;;;;2.47;2.27;;;20.30;66.00;;;-142.21;94.54;112049.66;5115155;28;20223;-78
2022/07/12 03:28:34;;;;;;;3.20;2.53;;;20.20;66.10;;;-142.21;94.48;112049.66;5114104;28;20191;-76
2022/07/12 03:31:01;;;;;;;3.67;2.40;;;20.20;66.00;;;-142.21;94.72;112049.66;5115243;28;20315;-76
2022/07/12 03:33:28;;;;;;;4.10;2.60;;;20.20;66.10;;;-142.21;94.84;112049.66;5113082;28;20231;-76
2022/07/12 03:35:57;;;;;;;3.70;2.50;;;20.20;66.30;;;-142.21;94.53;112049.66;5114333;28;20747;-75
2022/07/12 03:38:24;;;;;;;3.20;2.40;;;20.10;66.10;;;-142.21;95.08;112049.66;5114481;28;20231;-77
2022/07/12 03:40:51;;;;;;;2.83;2.60;;;20.10;66.10;;;-142.21;95.09;112049.66;5114141;28;20204;-75
2022/07/12 03:43:20;;;;;;;3.27;2.97;;;20.10;66.20;;;-142.21;95.04;112049.66;5114472;28;20199;-76
2022/07/12 03:45:47;;;;;;;3.00;2.70;;;20.00;66.30;;;-142.21;95.63;112049.66;5094664;28;20295;-76
2022/07/12 03:48:14;;;;;;;4.20;2.57;;;20.00;66.60;;;-142.21;95.89;112049.66;5111191;28;20298;-76
2022/07/12 03:50:41;;;;;;;2.50;2.30;;;19.90;66.60;;;-142.21;96.07;112049.66;5095470;28;20465;-76
2022/07/12 03:53:08;;;;;;;2.60;2.40;;;19.90;66.80;;;-142.21;96.21;112049.66;5110070;28;20294;-76
2022/07/12 03:55:35;;;;;;;2.83;2.53;;;19.90;66.90;;;-142.21;96.34;112049.66;5113796;28;20207;-75
2022/07/12 03:58:03;;;;;;;2.40;2.20;;;19.80;66.90;;;-142.21;96.37;112049.66;5112852;28;20291;-76
2022/07/12 04:00:32;;;;;;;4.13;2.40;;;19.80;67.10;;;-142.21;96.12;112049.66;5113555;28;20203;-75
2022/07/12 04:02:59;;;;;;;2.63;2.40;;;19.80;67.00;;;-142.21;96.69;112049.66;5112770;28;20465;-76
2022/07/12 04:05:27;;;;;;;2.33;2.13;;;19.80;67.20;;;-142.21;96.80;112049.66;5094407;28;20196;-76
2022/07/12 04:07:55;;;;;;;3.20;2.50;;;19.80;67.40;;;-142.21;97.26;112049.66;5113099;28;20208;-77
2022/07/12 04:10:22;;;;;;;2.70;2.40;;;19.80;67.80;;;-142.21;97.36;112049.66;5095845;28;20220;-76
2022/07/12 04:12:49;;;;;;;2.50;2.30;;;19.80;67.80;;;-142.21;97.22;112049.66;5111983;28;20207;-77
2022/07/12 04:15:18;;;;;;;4.43;2.57;;;19.70;67.80;;;-142.21;98.59;112049.66;5111531;28;20599;-76
2022/07/12 04:17:46;;;;;;;3.67;2.40;;;19.70;69.20;;;-142.21;97.96;112049.66;5107830;28;20291;-76
2022/07/12 04:20:13;;;;;;;3.57;2.10;;;19.70;68.40;;;-142.21;98.62;112049.66;5113997;28;20230;-75
2022/07/12 04:22:41;;;;;;;2.43;2.17;;;19.70;68.50;;;-142.21;98.86;112049.66;5113594;28;20207;-76
2022/07/12 04:25:10;;;;;;;3.50;2.23;;;19.70;68.90;;;-142.21;99.07;112049.66;5107907;28;20720;-76
2022/07/12 04:27:38;;;;;;;2.90;2.37;;;19.80;69.10;;;-142.21;99.64;112049.66;5112254;28;20208;-76
2022/07/12 04:30:07;;;;;;;2.90;2.10;;;19.70;69.40;;;-142.21;99.83;112049.66;5111358;28;20308;-77
2022/07/12 04:32:34;;;;;;;2.73;2.10;;;19.80;69.60;;;-142.21;100.00;112049.66;5094589;28;20933;-76
2022/07/12 04:35:02;;;;;;;3.63;2.80;;;19.80;69.70;;;-142.21;100.00;112049.66;5114027;28;20299;-76
2022/07/12 04:37:30;;;;;;;6.23;2.97;;;19.80;70.00;;;-142.21;100.00;112049.66;5111676;28;20223;-77
2022/07/12 04:39:57;;;;;;;4.17;2.87;;;19.80;69.90;;;-142.21;100.00;112049.66;5091402;28;20330;-76
2022/07/12 04:42:25;;;;;;;7.03;3.90;;;19.80;70.10;;;-142.21;100.00;112049.66;5114114;28;20253;-76
2022/07/12 04:44:52;;;;;;;17.10;5.10;;;19.90;70.10;;;-142.21;100.00;112049.66;5095200;28;20469;-77
2022/07/12 04:47:19;;;;;;;10.93;4.27;;;19.90;70.40;;;-142.21;100.00;112049.66;5113238;28;20199;-76
2022/07/12 04:49:46;;;;;;;4.90;3.23;;;19.90;70.40;;;-142.21;100.00;112049.66;5111787;28;20202;-77
2022/07/12 04:52:14;;;;;;;9.53;4.20;;;20.00;70.50;;;-142.21;100.00;112049.66;5076773;28;20292;-76
2022/07/12 04:54:42;;;;;;;3.17;2.30;;;20.00;70.40;;;-142.21;100.00;112049.66;5094399;28;20295;-77
2022/07/12 04:57:09;;;;;;;3.90;2.90;;;20.00;70.10;;;-142.21;100.00;112049.66;5113265;28;20282;-77
2022/07/12 04:59:36;;;;;;;5.60;2.70;;;20.10;69.80;;;-142.21;100.00;112049.66;5111982;28;20311;-77
2022/07/12 05:02:04;;;;;;;2.73;2.13;;;20.10;69.70;;;-142.21;99.40;112049.66;5094451;28;20210;-77
2022/07/12 05:04:33;;;;;;;3.63;2.90;;;20.20;69.50;;;-142.21;99.25;112049.66;5112887;28;20253;-76
2022/07/12 05:07:00;;;;;;;2.60;2.40;;;20.20;69.30;;;-142.21;99.16;112049.66;5112617;28;20230;-76
2022/07/12 05:09:29;;;;;;;2.27;2.07;;;20.30;69.20;;;-142.21;99.29;112049.66;5112487;28;20695;-77
2022/07/12 05:11:56;;;;;;;2.47;2.27;;;20.40;69.40;;;-142.21;99.64;112049.66;5094715;28;20635;-78
2022/07/12 05:14:23;;;;;;;2.83;2.30;;;20.40;69.30;;;-142.21;99.00;112049.66;5095197;28;20214;-77
2022/07/12 05:16:50;;;;;;;3.07;2.50;;;20.50;69.00;;;-142.21;99.95;112049.66;5111566;28;20204;-76
2022/07/12 05:19:18;;;;;;;2.40;2.20;;;20.60;69.60;;;-142.21;99.55;112049.66;5112988;28;20224;-78
2022/07/12 05:21:46;;;;;;;2.13;1.93;;;20.70;69.60;;;-142.21;99.95;112049.66;5111541;28;20208;-77
2022/07/12 05:24:13;;;;;;;2.00;1.90;;;20.80;69.50;;;-142.21;99.33;112049.66;5095531;28;20223;-76
2022/07/12 05:26:41;;;;;;;3.17;2.37;;;20.80;69.20;;;-142.21;99.30;112049.66;5112702;28;20239;-77
2022/07/12 05:29:08;;;;;;;3.53;2.10;;;20.90;69.40;;;-142.21;98.76;112049.66;5112011;28;20196;-76
2022/07/12 05:31:36;;;;;;;2.20;2.00;;;20.90;69.00;;;-142.21;99.11;112049.66;5111701;28;20731;-74
2022/07/12 05:34:03;;;;;;;2.10;2.00;;;21.00;69.10;;;-142.21;98.93;112049.66;5110861;28;20204;-75
2022/07/12 05:36:30;;;;;;;1.90;1.80;;;21.10;68.90;;;-142.21;98.33;112049.66;5106314;28;20241;-76
2022/07/12 05:38:58;;;;;;;2.37;2.17;;;21.20;68.80;;;-142.21;98.00;112049.66;5111710;28;20224;-76
2022/07/12 05:41:25;;;;;;;1.90;1.80;;;21.30;68.60;;;-142.21;97.02;112049.66;5112231;28;20219;-78
2022/07/12 05:43:53;;;;;;;2.63;2.10;;;21.30;68.10;;;-142.21;96.72;112049.66;5111316;28;20595;-79
2022/07/12 05:46:20;;;;;;;2.80;1.87;;;21.40;67.90;;;-142.21;96.99;112049.66;5110146;28;20204;-79
2022/07/12 05:48:48;;;;;;;3.50;1.80;;;21.50;67.90;;;-142.21;96.42;112049.66;5111934;28;20627;-79
2022/07/12 05:54:11;;;;;;;2.07;1.87;;;21.70;67.40;;;-142.21;96.99;112049.66;5027777;28;20198;-78
2022/07/12 05:56:38;;;;;;;2.40;1.83;;;21.70;67.60;;;-142.21;96.07;112049.66;5091500;28;20630;-77
2022/07/12 05:59:07;;;;;;;1.83;1.70;;;21.80;67.30;;;-142.21;94.91;112049.66;5112057;28;20249;-78
2022/07/12 06:01:35;;;;;;;1.80;1.70;;;21.90;66.90;;;-142.21;94.11;112049.66;5111769;28;20287;-78
2022/07/12 06:04:02;;;;;;;2.47;1.77;;;21.90;66.00;;;-142.21;93.30;112049.66;5111359;28;20541;-76
2022/07/12 06:06:30;;;;;;;2.13;1.93;;;22.00;65.60;;;-142.21;93.41;112049.66;5113200;28;20227;-78
2022/07/12 06:08:58;;;;;;;2.30;1.90;;;22.10;65.60;;;-142.21;92.58;112049.66;5110129;28;20243;-75
2022/07/12 06:11:25;;;;;;;2.93;1.73;;;22.10;65.20;;;-142.21;92.11;112049.66;5110676;28;20199;-74
2022/07/12 06:13:52;;;;;;;2.00;1.80;;;22.20;64.90;;;-142.21;92.89;112049.66;5111285;28;20258;-74
2022/07/12 06:16:21;;;;;;;2.27;1.70;;;22.30;65.10;;;-142.21;92.76;112049.66;5111197;28;20724;-74
2022/07/12 06:18:48;;;;;;;1.80;1.60;;;22.40;65.00;;;-142.21;92.31;112049.66;5107926;28;20216;-74
2022/07/12 06:21:15;;;;;;;1.90;1.73;;;22.50;65.60;;;-142.21;91.12;112049.66;5112054;28;20239;-74
2022/07/12 06:23:42;;;;;;;2.17;1.40;;;22.60;64.20;;;-142.21;92.01;112049.66;5110964;28;20241;-74
2022/07/12 06:26:09;;;;;;;2.73;1.50;;;22.60;64.60;;;-142.21;90.55;112049.66;5111261;28;20199;-74
2022/07/12 06:28:37;;;;;;;1.87;1.77;;;22.70;63.90;;;-142.21;89.25;112049.66;5109928;28;20290;-75
2022/07/12 06:31:04;;;;;;;1.53;1.43;;;22.70;63.20;;;-142.21;89.29;112049.66;5111745;28;20195;-75
2022/07/12 06:33:34;;;;;;;1.73;1.40;;;22.80;63.00;;;-142.21;89.61;112049.66;5110723;28;20228;-74
2022/07/12 06:36:01;;;;;;;2.70;1.40;;;22.90;63.10;;;-142.21;88.80;112049.66;5108047;28;20607;-75
2022/07/12 06:38:28;;;;;;;1.73;1.27;;;23.00;62.90;;;-142.21;88.43;112049.66;5108519;28;20310;-75
2022/07/12 06:40:55;;;;;;;1.70;1.60;;;23.10;62.50;;;-142.21;88.47;112049.66;5103676;28;20760;-75
2022/07/12 06:43:23;;;;;;;2.83;1.40;;;23.20;62.40;;;-142.21;87.83;112049.66;5104481;28;20202;-74
2022/07/12 06:45:50;;;;;;;1.60;1.50;;;23.30;62.20;;;-142.21;87.65;112049.66;5056015;28;20204;-75
2022/07/12 06:48:17;;;;;;;2.60;1.53;;;23.30;62.10;;;-142.21;86.10;112049.66;5068200;28;20287;-74
2022/07/12 06:50:46;;;;;;;2.80;1.20;;;23.40;61.30;;;-142.21;86.56;112049.66;5110790;28;20201;-74
2022/07/12 06:53:13;;;;;;;1.40;1.23;;;23.50;61.10;;;-142.21;85.33;112049.66;5111026;28;20227;-74
2022/07/12 06:55:40;;;;;;;1.30;1.20;;;23.60;60.80;;;-142.21;84.61;112049.66;5110706;28;20553;-74
2022/07/12 06:58:08;;;;;;;1.40;1.13;;;23.70;60.40;;;-142.21;84.26;112049.66;5111443;28;20207;-74
2022/07/12 07:00:36;;;;;;;0.90;0.90;;;23.80;60.20;;;-142.21;85.62;112049.66;5112097;28;20231;-74
2022/07/12 07:03:03;;;;;;;1.13;1.00;;;23.80;60.70;;;-142.21;85.14;112049.66;5105824;28;20221;-74
2022/07/12 07:05:30;;;;;;;1.47;0.80;;;23.90;60.50;;;-142.21;85.21;112049.66;5112058;28;20307;-75
2022/07/12 07:07:58;;;;;;;1.43;0.97;;;24.00;61.30;;;-142.21;83.77;112049.66;5110640;28;20286;-75
2022/07/12 07:10:26;;;;;;;2.03;0.80;;;24.10;59.80;;;-142.21;83.31;112049.66;5110692;28;20239;-75
2022/07/12 07:12:53;;;;;;;1.13;1.03;;;24.20;59.60;;;-142.21;82.26;112049.66;5090690;28;20222;-75
2022/07/12 07:15:20;;;;;;;1.43;1.20;;;24.20;59.10;;;-142.21;81.75;112049.66;5109714;28;20207;-75
2022/07/12 07:17:47;;;;;;;1.13;1.07;;;24.30;58.90;;;-142.21;81.92;112049.66;5110299;28;20235;-75
2022/07/12 07:20:15;;;;;;;1.10;1.00;;;24.40;59.00;;;-142.21;82.23;112049.66;5110892;28;20770;-75
2022/07/12 07:22:42;;;;;;;1.30;1.20;;;24.50;59.00;;;-142.21;81.38;112049.66;5108124;28;20203;-74
2022/07/12 07:25:11;;;;;;;0.63;0.63;;;24.60;58.80;;;-142.21;81.48;112049.66;5100493;28;20290;-74
2022/07/12 07:27:38;;;;;;;1.50;1.03;;;24.70;58.80;;;-142.21;80.63;112049.66;5110285;28;20203;-73
2022/07/12 07:32:52;;;;;;;1.13;1.00;;;24.80;57.90;;;-142.21;78.77;112049.66;5104334;28;20295;-74
2022/07/12 07:35:19;;;;;;;0.97;0.97;;;24.90;57.80;;;-142.21;77.60;112049.66;5110665;28;20208;-76
2022/07/12 07:37:46;;;;;;;1.77;1.00;;;25.00;57.40;;;-142.21;76.25;112049.66;5108481;28;20310;-75
2022/07/12 07:40:15;;;;;;;1.17;1.07;;;25.00;56.90;;;-142.21;75.34;112049.66;5112500;28;20227;-74
2022/07/12 07:42:42;;;;;;;0.77;0.77;;;25.10;56.70;;;-142.21;73.93;112049.66;5114227;28;20242;-75
2022/07/12 07:45:10;;;;;;;0.80;0.80;;;25.10;56.20;;;-142.21;70.96;112049.66;5114223;28;20252;-74
2022/07/12 07:47:45;;;;;;;0.70;0.70;;;25.20;55.60;;;-142.21;69.04;112049.66;5114595;28;20211;-74
2022/07/12 07:50:12;;;;;;;0.87;0.70;;;25.30;54.60;;;-142.21;69.91;112049.66;5115135;28;20484;-74
2022/07/12 07:52:39;;;;;;;0.97;0.57;;;25.40;54.90;;;-142.21;68.04;112049.66;5110185;28;20295;-74
2022/07/12 07:55:07;;;;;;;0.63;0.60;;;25.40;54.50;;;-142.21;67.60;112049.66;5114514;28;20199;-75
2022/07/12 07:57:36;;;;;;;0.70;0.67;;;25.40;54.40;;;-142.21;66.35;112049.66;5114542;28;20740;-74
2022/07/12 08:00:05;;;;;;;0.50;0.50;;;25.50;53.90;;;-142.21;66.21;112049.66;5113764;28;20695;-75
2022/07/12 08:02:32;;;;;;;0.70;0.60;;;25.60;53.80;;;-142.21;66.16;112049.66;5113217;28;20248;-75
2022/07/12 08:04:59;;;;;;;0.70;0.70;;;25.70;54.40;;;-142.21;67.45;112049.66;5113627;28;20239;-75
2022/07/12 08:07:27;;;;;;;0.70;0.70;;;25.80;54.00;;;-142.21;66.64;112049.66;5114065;28;20290;-75
2022/07/12 08:09:54;;;;;;;0.73;0.73;;;25.90;53.70;;;-142.21;67.33;112049.66;5113210;28;20300;-74
2022/07/12 08:12:22;;;;;;;0.50;0.50;;;26.00;54.00;;;-142.21;63.14;112049.66;5113290;28;20206;-75
2022/07/12 08:14:50;;;;;;;0.50;0.50;;;26.10;53.00;;;-142.21;59.68;112049.66;5114106;28;20464;-74
2022/07/12 08:17:17;;;;;;;1.43;0.80;;;26.20;52.10;;;-142.21;61.35;112049.66;5114618;28;20254;-74
2022/07/12 08:19:44;;;;;;;0.50;0.50;;;26.30;52.20;;;-142.21;63.25;112049.66;5094713;28;20262;-74
2022/07/12 08:22:12;;;;;;;0.50;0.50;;;26.40;52.70;;;-142.21;59.76;112049.66;5113679;28;20235;-74
2022/07/12 08:24:39;;;;;;;0.67;0.67;;;26.40;51.90;;;-142.21;58.53;112049.66;5113554;28;20208;-75
2022/07/12 08:27:06;;;;;;;0.43;0.43;;;26.50;51.40;;;-142.21;61.46;112049.66;5111791;28;20275;-75
2022/07/12 08:29:33;;;;;;;0.70;0.70;;;26.60;51.90;;;-142.21;62.29;112049.66;5113149;28;20628;-74
2022/07/12 08:32:02;;;;;;;0.63;0.63;;;26.60;52.30;;;-142.21;58.87;112049.66;5112565;28;20222;-74
2022/07/12 08:34:29;;;;;;;1.33;0.80;;;26.70;51.40;;;-142.21;58.78;112049.66;5112946;28;20711;-75
2022/07/12 08:36:56;;;;;;;0.80;0.80;;;26.80;51.40;;;-142.21;58.77;112049.66;5112717;28;20226;-73
2022/07/12 08:39:23;;;;;;;0.70;0.70;;;26.80;51.30;;;-142.21;60.41;112049.66;5113541;28;20222;-75
2022/07/12 08:41:50;;;;;;;0.70;0.70;;;26.90;51.60;;;-142.21;57.71;112049.66;5113539;28;20220;-74
2022/07/12 08:44:18;;;;;;;0.93;0.40;;;26.90;50.90;;;-142.21;58.91;112049.66;5113520;28;20210;-75
2022/07/12 08:46:46;;;;;;;0.70;0.70;;;27.00;51.20;;;-142.21;55.21;112049.66;5075942;28;20286;-74
2022/07/12 08:49:15;;;;;;;0.63;0.57;;;27.10;50.20;;;-142.21;56.20;112049.66;5113212;28;20206;-76
2022/07/12 08:51:42;;;;;;;0.60;0.60;;;27.20;50.20;;;-142.21;54.55;112049.66;5112101;28;20202;-75
2022/07/12 08:54:13;;;;;;;0.77;0.77;;;27.20;49.80;;;-142.21;55.58;112049.66;5113228;28;20317;-76
2022/07/12 08:56:42;;;;;;;0.50;0.50;;;27.30;50.20;;;-142.21;54.22;112049.66;5113532;28;20204;-74
2022/07/12 08:59:18;;;;;;;0.60;0.60;;;27.40;49.70;;;-142.21;57.05;112049.66;5110998;28;20283;-74
2022/07/12 09:01:49;;;;;;;0.70;0.70;;;27.50;50.30;;;-142.21;54.90;112049.66;5108255;28;20224;-75
2022/07/12 09:04:20;;;;;;;0.67;0.67;;;27.60;49.70;;;-142.21;54.30;112049.66;5111917;28;20246;-75
2022/07/12 09:06:48;;;;;;;0.53;0.53;;;27.60;49.40;;;-142.21;52.67;112049.66;5112566;28;20260;-75
2022/07/12 09:09:28;;;;;;;0.70;0.70;;;27.70;49.10;;;-142.21;51.50;112049.66;5113628;28;20326;-76
2022/07/12 09:11:56;;;;;;;0.40;0.40;;;27.70;48.40;;;-142.21;51.73;112049.66;5092387;28;20220;-75
2022/07/12 09:14:24;;;;;;;2.20;0.43;;;27.80;48.80;;;-142.21;51.42;112049.66;5096028;28;20233;-74
2022/07/12 09:17:02;;;;;;;0.73;0.70;;;27.90;48.40;;;-142.21;51.99;112049.66;5113381;28;20291;-74
2022/07/12 09:19:31;;;;;;;0.77;0.70;;;28.00;48.70;;;-142.21;51.38;112049.66;5095911;28;20190;-74
2022/07/12 09:21:59;;;;;;;0.70;0.70;;;28.10;48.60;;;-142.21;50.28;112049.66;5113169;28;20249;-75
2022/07/12 09:24:28;;;;;;;0.57;0.57;;;28.10;48.20;;;-142.21;49.10;112049.66;5113878;28;20299;-74
2022/07/12 09:27:00;;;;;;;0.83;0.50;;;28.00;47.70;;;-142.21;49.75;112049.66;5111921;28;20202;-73
2022/07/12 09:29:27;;;;;;;0.67;0.67;;;27.90;47.60;;;-142.21;49.83;112049.66;5108075;28;20308;-75
2022/07/12 09:37:27;;;;;;;0.70;0.70;;;27.90;47.90;;;-142.21;48.73;112049.66;5109625;28;20243;-73
2022/07/12 09:39:55;;;;;;;0.50;0.50;;;28.00;47.80;;;-142.21;49.87;112049.66;5110890;28;20215;-73
2022/07/12 09:42:23;;;;;;;0.60;0.60;;;28.10;48.00;;;-142.21;48.47;112049.66;5113007;28;20205;-76
2022/07/12 09:44:53;;;;;;;0.73;0.50;;;28.10;47.60;;;-142.21;48.86;112049.66;5110983;28;20749;-75
2022/07/12 09:47:22;;;;;;;0.53;0.53;;;28.00;47.30;;;-142.21;49.20;112049.66;5113307;28;20571;-75
2022/07/12 09:49:52;;;;;;;0.50;0.50;;;28.00;47.40;;;-142.21;50.08;112049.66;5112029;28;20209;-75
2022/07/12 09:52:22;;;;;;;0.70;0.40;;;28.10;47.80;;;-142.21;49.77;112049.66;5113301;28;20605;-75
2022/07/12 09:54:53;;;;;;;0.80;0.80;;;28.20;47.90;;;-142.21;48.99;112049.66;5112729;28;20246;-75
2022/07/12 09:57:26;;;;;;;0.70;0.70;;;28.30;47.50;;;-142.21;46.46;112049.66;5111375;28;20225;-75
2022/07/12 09:59:55;;;;;;;5.33;0.50;;;28.30;46.50;;;-142.21;45.79;112049.66;5112365;28;20220;-75
2022/07/12 10:02:23;;;;;;;0.80;0.63;;;28.30;46.30;;;-142.21;46.68;112049.66;5112582;28;20220;-76
2022/07/12 10:04:53;;;;;;;0.50;0.50;;;28.40;46.60;;;-142.21;47.69;112049.66;5111241;28;20278;-75
2022/07/12 10:07:21;;;;;;;0.40;0.40;;;28.50;46.90;;;-142.21;46.32;112049.66;5113004;28;20552;-75
2022/07/12 10:09:53;;;;;;;0.70;0.70;;;28.60;46.60;;;-142.21;46.36;112049.66;5057415;28;20317;-74
2022/07/12 10:12:23;;;;;;;0.77;0.50;;;28.70;46.20;;;-142.21;46.91;112049.66;5109780;28;20285;-71
2022/07/12 10:15:00;;;;;;;0.50;0.50;;;28.80;46.50;;;-142.21;47.50;112049.66;5109612;28;20211;-76